sensor_id;sensor_type;location;lat;lon;timestamp;temperature;humidity
42037;DHT22;30340;52.004;5.908;2022-08-01T00:01:12;20.90;82.00
42037;DHT22;30340;52.004;5.908;2022-08-01T00:03:38;20.90;82.00
42037;DHT22;30340;52.004;5.908;2022-08-01T00:06:03;21.00;82.00
42037;DHT22;30340;52.004;5.908;2022-08-01T00:08:29;21.00;81.90
42037;DHT22;30340;52.004;5.908;2022-08-01T00:10:54;21.00;81.80
42037;DHT22;30340;52.004;5.908;2022-08-01T00:13:20;21.00;81.80
42037;DHT22;30340;52.004;5.908;2022-08-01T00:15:45;21.00;81.80
42037;DHT22;30340;52.004;5.908;2022-08-01T00:18:11;20.90;81.90
42037;DHT22;30340;52.004;5.908;2022-08-01T00:20:36;21.00;81.90
42037;DHT22;30340;52.004;5.908;2022-08-01T00:23:03;20.90;81.90
42037;DHT22;30340;52.004;5.908;2022-08-01T00:25:28;20.90;81.90
42037;DHT22;30340;52.004;5.908;2022-08-01T00:27:54;20.90;81.90
42037;DHT22;30340;52.004;5.908;2022-08-01T00:30:19;20.90;81.90
42037;DHT22;30340;52.004;5.908;2022-08-01T00:32:45;20.90;81.80
42037;DHT22;30340;52.004;5.908;2022-08-01T00:35:10;20.90;81.90
42037;DHT22;30340;52.004;5.908;2022-08-01T00:37:36;20.90;81.80
42037;DHT22;30340;52.004;5.908;2022-08-01T00:40:02;20.90;81.70
42037;DHT22;30340;52.004;5.908;2022-08-01T00:42:28;21.00;81.70
42037;DHT22;30340;52.004;5.908;2022-08-01T00:44:53;21.00;81.60
42037;DHT22;30340;52.004;5.908;2022-08-01T00:47:19;21.00;81.50
42037;DHT22;30340;52.004;5.908;2022-08-01T00:49:44;21.00;81.40
42037;DHT22;30340;52.004;5.908;2022-08-01T00:52:10;21.00;81.30
42037;DHT22;30340;52.004;5.908;2022-08-01T00:54:36;21.00;81.20
42037;DHT22;30340;52.004;5.908;2022-08-01T00:57:02;21.00;81.20
42037;DHT22;30340;52.004;5.908;2022-08-01T00:59:28;21.00;81.20
42037;DHT22;30340;52.004;5.908;2022-08-01T01:01:54;21.00;81.30
42037;DHT22;30340;52.004;5.908;2022-08-01T01:04:20;21.00;81.30
42037;DHT22;30340;52.004;5.908;2022-08-01T01:12:19;21.00;81.30
42037;DHT22;30340;52.004;5.908;2022-08-01T01:17:19;20.90;81.20
42037;DHT22;30340;52.004;5.908;2022-08-01T01:19:50;21.00;81.20
42037;DHT22;30340;52.004;5.908;2022-08-01T01:22:36;20.90;81.10
42037;DHT22;30340;52.004;5.908;2022-08-01T01:27:50;20.90;81.20
42037;DHT22;30340;52.004;5.908;2022-08-01T01:30:16;20.90;81.20
42037;DHT22;30340;52.004;5.908;2022-08-01T01:32:45;20.90;81.00
42037;DHT22;30340;52.004;5.908;2022-08-01T01:35:24;20.90;81.00
42037;DHT22;30340;52.004;5.908;2022-08-01T01:37:55;20.90;80.90
42037;DHT22;30340;52.004;5.908;2022-08-01T01:40:23;20.90;81.00
42037;DHT22;30340;52.004;5.908;2022-08-01T01:42:50;20.90;81.00
42037;DHT22;30340;52.004;5.908;2022-08-01T01:45:18;20.80;81.10
42037;DHT22;30340;52.004;5.908;2022-08-01T01:47:45;20.80;81.20
42037;DHT22;30340;52.004;5.908;2022-08-01T01:50:11;20.80;81.20
42037;DHT22;30340;52.004;5.908;2022-08-01T01:52:39;20.90;81.30
42037;DHT22;30340;52.004;5.908;2022-08-01T01:55:07;20.80;81.10
42037;DHT22;30340;52.004;5.908;2022-08-01T01:57:37;20.80;81.10
42037;DHT22;30340;52.004;5.908;2022-08-01T02:00:04;20.80;81.20
42037;DHT22;30340;52.004;5.908;2022-08-01T02:02:33;20.80;81.20
42037;DHT22;30340;52.004;5.908;2022-08-01T02:05:01;20.80;81.30
42037;DHT22;30340;52.004;5.908;2022-08-01T02:07:28;20.80;81.30
42037;DHT22;30340;52.004;5.908;2022-08-01T02:09:54;20.80;81.40
42037;DHT22;30340;52.004;5.908;2022-08-01T02:12:21;20.80;81.40
42037;DHT22;30340;52.004;5.908;2022-08-01T02:14:48;20.80;81.40
42037;DHT22;30340;52.004;5.908;2022-08-01T02:17:20;20.80;81.50
42037;DHT22;30340;52.004;5.908;2022-08-01T02:19:46;20.80;81.40
42037;DHT22;30340;52.004;5.908;2022-08-01T02:22:44;20.80;81.30
42037;DHT22;30340;52.004;5.908;2022-08-01T02:25:23;20.70;81.40
42037;DHT22;30340;52.004;5.908;2022-08-01T02:28:15;20.70;81.50
42037;DHT22;30340;52.004;5.908;2022-08-01T02:30:42;20.70;81.60
42037;DHT22;30340;52.004;5.908;2022-08-01T02:33:18;20.70;82.30
42037;DHT22;30340;52.004;5.908;2022-08-01T02:35:50;20.70;81.80
42037;DHT22;30340;52.004;5.908;2022-08-01T02:38:17;20.70;81.80
42037;DHT22;30340;52.004;5.908;2022-08-01T02:40:46;20.70;81.70
42037;DHT22;30340;52.004;5.908;2022-08-01T02:43:17;20.70;81.80
42037;DHT22;30340;52.004;5.908;2022-08-01T02:45:47;20.70;81.90
42037;DHT22;30340;52.004;5.908;2022-08-01T02:48:15;20.70;81.70
42037;DHT22;30340;52.004;5.908;2022-08-01T02:50:44;20.70;81.80
42037;DHT22;30340;52.004;5.908;2022-08-01T02:53:12;20.60;81.80
42037;DHT22;30340;52.004;5.908;2022-08-01T02:55:40;20.70;81.80
42037;DHT22;30340;52.004;5.908;2022-08-01T02:58:07;20.70;81.90
42037;DHT22;30340;52.004;5.908;2022-08-01T03:00:34;20.70;82.00
42037;DHT22;30340;52.004;5.908;2022-08-01T03:03:01;20.70;82.00
42037;DHT22;30340;52.004;5.908;2022-08-01T03:05:28;20.70;82.00
42037;DHT22;30340;52.004;5.908;2022-08-01T03:07:56;20.60;81.90
42037;DHT22;30340;52.004;5.908;2022-08-01T03:10:25;20.60;82.10
42037;DHT22;30340;52.004;5.908;2022-08-01T03:12:52;20.60;82.10
42037;DHT22;30340;52.004;5.908;2022-08-01T03:15:19;20.60;82.20
42037;DHT22;30340;52.004;5.908;2022-08-01T03:17:46;20.60;82.30
42037;DHT22;30340;52.004;5.908;2022-08-01T03:20:14;20.60;82.30
42037;DHT22;30340;52.004;5.908;2022-08-01T03:22:42;20.50;82.20
42037;DHT22;30340;52.004;5.908;2022-08-01T03:25:09;20.50;82.30
42037;DHT22;30340;52.004;5.908;2022-08-01T03:27:36;20.50;82.30
42037;DHT22;30340;52.004;5.908;2022-08-01T03:30:04;20.50;82.20
42037;DHT22;30340;52.004;5.908;2022-08-01T03:32:30;20.50;82.30
42037;DHT22;30340;52.004;5.908;2022-08-01T03:34:57;20.50;82.20
42037;DHT22;30340;52.004;5.908;2022-08-01T03:42:40;20.50;82.30
42037;DHT22;30340;52.004;5.908;2022-08-01T03:45:10;20.50;82.30
42037;DHT22;30340;52.004;5.908;2022-08-01T03:47:36;20.50;82.20
42037;DHT22;30340;52.004;5.908;2022-08-01T03:50:04;20.50;82.20
42037;DHT22;30340;52.004;5.908;2022-08-01T03:52:32;20.60;82.10
42037;DHT22;30340;52.004;5.908;2022-08-01T03:55:04;20.50;82.10
42037;DHT22;30340;52.004;5.908;2022-08-01T03:57:32;20.50;82.10
42037;DHT22;30340;52.004;5.908;2022-08-01T03:59:59;20.50;82.10
42037;DHT22;30340;52.004;5.908;2022-08-01T04:02:26;20.50;82.20
42037;DHT22;30340;52.004;5.908;2022-08-01T04:04:53;20.50;82.20
42037;DHT22;30340;52.004;5.908;2022-08-01T04:07:30;20.50;82.20
42037;DHT22;30340;52.004;5.908;2022-08-01T04:09:55;20.50;82.20
42037;DHT22;30340;52.004;5.908;2022-08-01T04:12:22;20.50;82.20
42037;DHT22;30340;52.004;5.908;2022-08-01T04:14:48;20.50;82.20
42037;DHT22;30340;52.004;5.908;2022-08-01T04:17:17;20.50;82.20
42037;DHT22;30340;52.004;5.908;2022-08-01T04:19:44;20.50;82.20
42037;DHT22;30340;52.004;5.908;2022-08-01T04:22:11;20.50;82.40
42037;DHT22;30340;52.004;5.908;2022-08-01T04:24:39;20.50;82.20
42037;DHT22;30340;52.004;5.908;2022-08-01T04:27:09;20.50;82.20
42037;DHT22;30340;52.004;5.908;2022-08-01T04:29:38;20.50;82.20
42037;DHT22;30340;52.004;5.908;2022-08-01T04:32:05;20.50;82.30
42037;DHT22;30340;52.004;5.908;2022-08-01T04:34:31;20.50;82.20
42037;DHT22;30340;52.004;5.908;2022-08-01T04:36:59;20.50;82.30
42037;DHT22;30340;52.004;5.908;2022-08-01T04:39:27;20.50;82.30
42037;DHT22;30340;52.004;5.908;2022-08-01T04:41:54;20.50;82.20
42037;DHT22;30340;52.004;5.908;2022-08-01T04:44:23;20.50;82.40
42037;DHT22;30340;52.004;5.908;2022-08-01T04:46:49;20.50;82.40
42037;DHT22;30340;52.004;5.908;2022-08-01T04:49:16;20.60;82.40
42037;DHT22;30340;52.004;5.908;2022-08-01T04:51:55;20.50;82.40
42037;DHT22;30340;52.004;5.908;2022-08-01T04:54:33;20.50;82.40
42037;DHT22;30340;52.004;5.908;2022-08-01T04:57:02;20.50;82.40
42037;DHT22;30340;52.004;5.908;2022-08-01T04:59:29;20.50;82.50
42037;DHT22;30340;52.004;5.908;2022-08-01T05:02:11;20.50;82.50
42037;DHT22;30340;52.004;5.908;2022-08-01T05:04:38;20.60;82.40
42037;DHT22;30340;52.004;5.908;2022-08-01T05:07:04;20.60;82.40
42037;DHT22;30340;52.004;5.908;2022-08-01T05:09:30;20.60;82.30
42037;DHT22;30340;52.004;5.908;2022-08-01T05:11:56;20.70;82.30
42037;DHT22;30340;52.004;5.908;2022-08-01T05:14:24;20.70;82.20
42037;DHT22;30340;52.004;5.908;2022-08-01T05:16:51;20.70;82.10
42037;DHT22;30340;52.004;5.908;2022-08-01T05:19:16;20.70;82.20
42037;DHT22;30340;52.004;5.908;2022-08-01T05:21:42;20.70;82.20
42037;DHT22;30340;52.004;5.908;2022-08-01T05:24:07;20.70;82.20
42037;DHT22;30340;52.004;5.908;2022-08-01T05:26:33;20.70;82.20
42037;DHT22;30340;52.004;5.908;2022-08-01T05:28:59;20.70;82.30
42037;DHT22;30340;52.004;5.908;2022-08-01T05:31:25;20.70;82.20
42037;DHT22;30340;52.004;5.908;2022-08-01T05:33:50;20.80;82.20
42037;DHT22;30340;52.004;5.908;2022-08-01T05:36:16;20.80;82.20
42037;DHT22;30340;52.004;5.908;2022-08-01T05:38:42;20.70;82.20
42037;DHT22;30340;52.004;5.908;2022-08-01T05:41:07;20.70;82.20
42037;DHT22;30340;52.004;5.908;2022-08-01T05:43:33;20.70;82.20
42037;DHT22;30340;52.004;5.908;2022-08-01T05:45:58;20.70;82.30
42037;DHT22;30340;52.004;5.908;2022-08-01T05:48:24;20.70;82.40
42037;DHT22;30340;52.004;5.908;2022-08-01T05:50:50;20.70;82.50
42037;DHT22;30340;52.004;5.908;2022-08-01T05:53:16;20.60;82.40
42037;DHT22;30340;52.004;5.908;2022-08-01T05:55:41;20.60;82.50
42037;DHT22;30340;52.004;5.908;2022-08-01T05:58:07;20.60;82.50
42037;DHT22;30340;52.004;5.908;2022-08-01T06:00:32;20.50;82.50
42037;DHT22;30340;52.004;5.908;2022-08-01T06:02:58;20.50;82.50
42037;DHT22;30340;52.004;5.908;2022-08-01T06:05:23;20.60;82.50
42037;DHT22;30340;52.004;5.908;2022-08-01T06:07:49;20.70;82.50
42037;DHT22;30340;52.004;5.908;2022-08-01T06:10:14;20.70;82.30
42037;DHT22;30340;52.004;5.908;2022-08-01T06:12:40;20.70;82.20
42037;DHT22;30340;52.004;5.908;2022-08-01T06:15:06;20.70;82.10
42037;DHT22;30340;52.004;5.908;2022-08-01T06:17:32;20.70;82.00
42037;DHT22;30340;52.004;5.908;2022-08-01T06:19:58;20.70;82.00
42037;DHT22;30340;52.004;5.908;2022-08-01T06:22:24;20.80;82.00
42037;DHT22;30340;52.004;5.908;2022-08-01T06:24:50;20.80;82.00
42037;DHT22;30340;52.004;5.908;2022-08-01T06:27:16;20.80;82.00
42037;DHT22;30340;52.004;5.908;2022-08-01T06:29:41;20.80;81.90
42037;DHT22;30340;52.004;5.908;2022-08-01T06:32:08;20.90;81.90
42037;DHT22;30340;52.004;5.908;2022-08-01T06:34:35;20.90;81.70
42037;DHT22;30340;52.004;5.908;2022-08-01T06:37:00;20.90;81.50
42037;DHT22;30340;52.004;5.908;2022-08-01T06:39:26;20.90;81.30
42037;DHT22;30340;52.004;5.908;2022-08-01T06:41:54;20.90;81.20
42037;DHT22;30340;52.004;5.908;2022-08-01T06:44:20;20.80;81.40
42037;DHT22;30340;52.004;5.908;2022-08-01T06:46:46;20.90;81.50
42037;DHT22;30340;52.004;5.908;2022-08-01T06:49:11;20.90;81.50
42037;DHT22;30340;52.004;5.908;2022-08-01T06:51:40;21.00;81.40
42037;DHT22;30340;52.004;5.908;2022-08-01T06:54:05;21.00;81.10
42037;DHT22;30340;52.004;5.908;2022-08-01T06:56:31;21.10;81.00
42037;DHT22;30340;52.004;5.908;2022-08-01T06:58:57;21.10;80.90
42037;DHT22;30340;52.004;5.908;2022-08-01T07:01:29;21.10;80.60
42037;DHT22;30340;52.004;5.908;2022-08-01T07:03:55;21.10;80.40
42037;DHT22;30340;52.004;5.908;2022-08-01T07:06:24;21.20;80.30
42037;DHT22;30340;52.004;5.908;2022-08-01T07:08:53;21.20;80.40
42037;DHT22;30340;52.004;5.908;2022-08-01T07:11:20;21.20;80.30
42037;DHT22;30340;52.004;5.908;2022-08-01T07:13:46;21.20;80.10
42037;DHT22;30340;52.004;5.908;2022-08-01T07:16:13;21.20;80.10
42037;DHT22;30340;52.004;5.908;2022-08-01T07:18:39;21.20;80.00
42037;DHT22;30340;52.004;5.908;2022-08-01T07:21:05;21.20;79.90
42037;DHT22;30340;52.004;5.908;2022-08-01T07:23:31;21.20;79.90
42037;DHT22;30340;52.004;5.908;2022-08-01T07:25:57;21.20;79.80
42037;DHT22;30340;52.004;5.908;2022-08-01T07:28:23;21.20;79.60
42037;DHT22;30340;52.004;5.908;2022-08-01T07:30:48;21.20;80.20
42037;DHT22;30340;52.004;5.908;2022-08-01T07:33:14;21.20;79.70
42037;DHT22;30340;52.004;5.908;2022-08-01T07:35:40;21.20;79.80
42037;DHT22;30340;52.004;5.908;2022-08-01T07:38:06;21.30;79.80
42037;DHT22;30340;52.004;5.908;2022-08-01T07:40:32;21.30;79.80
42037;DHT22;30340;52.004;5.908;2022-08-01T07:42:58;21.30;79.70
42037;DHT22;30340;52.004;5.908;2022-08-01T07:45:24;21.30;79.50
42037;DHT22;30340;52.004;5.908;2022-08-01T07:47:49;21.40;79.40
42037;DHT22;30340;52.004;5.908;2022-08-01T07:50:15;21.40;79.40
42037;DHT22;30340;52.004;5.908;2022-08-01T07:52:42;21.40;79.40
42037;DHT22;30340;52.004;5.908;2022-08-01T07:55:11;21.40;79.40
42037;DHT22;30340;52.004;5.908;2022-08-01T07:57:37;21.40;79.70
42037;DHT22;30340;52.004;5.908;2022-08-01T08:00:04;21.40;79.30
42037;DHT22;30340;52.004;5.908;2022-08-01T08:02:31;21.40;79.20
42037;DHT22;30340;52.004;5.908;2022-08-01T08:04:56;21.40;79.20
42037;DHT22;30340;52.004;5.908;2022-08-01T08:07:22;21.40;79.10
42037;DHT22;30340;52.004;5.908;2022-08-01T08:09:48;21.30;79.00
42037;DHT22;30340;52.004;5.908;2022-08-01T08:12:13;21.30;79.10
42037;DHT22;30340;52.004;5.908;2022-08-01T08:14:39;21.40;79.10
42037;DHT22;30340;52.004;5.908;2022-08-01T08:17:05;21.40;78.90
42037;DHT22;30340;52.004;5.908;2022-08-01T08:19:31;21.40;78.80
42037;DHT22;30340;52.004;5.908;2022-08-01T08:21:59;21.30;78.60
42037;DHT22;30340;52.004;5.908;2022-08-01T08:24:25;21.10;78.70
42037;DHT22;30340;52.004;5.908;2022-08-01T08:26:54;21.10;79.10
42037;DHT22;30340;52.004;5.908;2022-08-01T08:29:21;21.10;79.30
42037;DHT22;30340;52.004;5.908;2022-08-01T08:31:47;21.00;79.30
42037;DHT22;30340;52.004;5.908;2022-08-01T08:34:13;21.10;79.30
42037;DHT22;30340;52.004;5.908;2022-08-01T08:36:38;21.20;79.30
42037;DHT22;30340;52.004;5.908;2022-08-01T08:39:04;21.30;79.10
42037;DHT22;30340;52.004;5.908;2022-08-01T08:41:32;21.30;78.80
42037;DHT22;30340;52.004;5.908;2022-08-01T08:43:57;21.40;78.60
42037;DHT22;30340;52.004;5.908;2022-08-01T08:46:26;21.50;78.40
42037;DHT22;30340;52.004;5.908;2022-08-01T08:48:53;21.60;77.90
42037;DHT22;30340;52.004;5.908;2022-08-01T08:51:19;21.70;77.70
42037;DHT22;30340;52.004;5.908;2022-08-01T08:53:46;21.60;77.40
42037;DHT22;30340;52.004;5.908;2022-08-01T08:56:13;21.70;77.50
42037;DHT22;30340;52.004;5.908;2022-08-01T08:58:42;21.70;77.40
42037;DHT22;30340;52.004;5.908;2022-08-01T09:01:09;21.60;77.60
42037;DHT22;30340;52.004;5.908;2022-08-01T09:03:35;21.40;77.80
42037;DHT22;30340;52.004;5.908;2022-08-01T09:06:02;21.20;78.10
42037;DHT22;30340;52.004;5.908;2022-08-01T09:08:28;21.10;78.60
42037;DHT22;30340;52.004;5.908;2022-08-01T09:10:53;21.00;78.80
42037;DHT22;30340;52.004;5.908;2022-08-01T09:13:19;21.00;79.10
42037;DHT22;30340;52.004;5.908;2022-08-01T09:15:48;21.00;79.30
42037;DHT22;30340;52.004;5.908;2022-08-01T09:18:38;21.00;79.40
42037;DHT22;30340;52.004;5.908;2022-08-01T09:21:21;21.00;79.40
42037;DHT22;30340;52.004;5.908;2022-08-01T09:23:53;21.00;79.50
42037;DHT22;30340;52.004;5.908;2022-08-01T09:26:22;21.00;79.40
42037;DHT22;30340;52.004;5.908;2022-08-01T09:28:53;21.00;79.30
42037;DHT22;30340;52.004;5.908;2022-08-01T09:31:19;21.00;79.20
42037;DHT22;30340;52.004;5.908;2022-08-01T09:36:13;21.00;79.30
42037;DHT22;30340;52.004;5.908;2022-08-01T09:38:40;21.00;79.20
42037;DHT22;30340;52.004;5.908;2022-08-01T09:41:06;21.00;79.40
42037;DHT22;30340;52.004;5.908;2022-08-01T09:43:33;21.00;79.40
42037;DHT22;30340;52.004;5.908;2022-08-01T09:46:02;20.90;79.60
42037;DHT22;30340;52.004;5.908;2022-08-01T09:48:29;20.80;79.80
42037;DHT22;30340;52.004;5.908;2022-08-01T09:50:56;20.80;80.00
42037;DHT22;30340;52.004;5.908;2022-08-01T09:53:21;20.80;80.00
42037;DHT22;30340;52.004;5.908;2022-08-01T09:55:47;20.80;80.00
42037;DHT22;30340;52.004;5.908;2022-08-01T09:58:16;20.80;80.10
42037;DHT22;30340;52.004;5.908;2022-08-01T10:00:41;20.80;80.70
42037;DHT22;30340;52.004;5.908;2022-08-01T10:03:24;20.80;80.00
42037;DHT22;30340;52.004;5.908;2022-08-01T10:05:50;20.90;79.90
42037;DHT22;30340;52.004;5.908;2022-08-01T10:08:17;20.90;79.90
42037;DHT22;30340;52.004;5.908;2022-08-01T10:11:08;21.00;79.90
42037;DHT22;30340;52.004;5.908;2022-08-01T10:13:34;21.10;79.60
42037;DHT22;30340;52.004;5.908;2022-08-01T10:16:00;21.20;79.40
42037;DHT22;30340;52.004;5.908;2022-08-01T10:18:27;21.30;79.40
42037;DHT22;30340;52.004;5.908;2022-08-01T10:20:54;21.40;79.30
42037;DHT22;30340;52.004;5.908;2022-08-01T10:23:20;21.40;79.10
42037;DHT22;30340;52.004;5.908;2022-08-01T10:25:48;21.50;79.10
42037;DHT22;30340;52.004;5.908;2022-08-01T10:28:15;21.50;79.00
42037;DHT22;30340;52.004;5.908;2022-08-01T10:30:44;21.60;78.90
42037;DHT22;30340;52.004;5.908;2022-08-01T10:33:11;21.70;78.80
42037;DHT22;30340;52.004;5.908;2022-08-01T10:35:38;21.80;78.60
42037;DHT22;30340;52.004;5.908;2022-08-01T10:38:05;21.90;78.40
42037;DHT22;30340;52.004;5.908;2022-08-01T10:40:32;22.00;78.20
42037;DHT22;30340;52.004;5.908;2022-08-01T10:42:57;22.00;77.90
42037;DHT22;30340;52.004;5.908;2022-08-01T10:45:24;22.00;77.60
42037;DHT22;30340;52.004;5.908;2022-08-01T10:48:31;22.00;77.60
42037;DHT22;30340;52.004;5.908;2022-08-01T10:50:55;22.00;77.50
42037;DHT22;30340;52.004;5.908;2022-08-01T10:53:25;22.00;77.40
42037;DHT22;30340;52.004;5.908;2022-08-01T10:58:27;22.00;77.10
42037;DHT22;30340;52.004;5.908;2022-08-01T11:01:17;22.10;76.90
42037;DHT22;30340;52.004;5.908;2022-08-01T11:04:05;22.20;76.70
42037;DHT22;30340;52.004;5.908;2022-08-01T11:09:05;22.40;75.80
42037;DHT22;30340;52.004;5.908;2022-08-01T11:12:00;22.50;75.70
42037;DHT22;30340;52.004;5.908;2022-08-01T11:14:27;22.50;75.10
42037;DHT22;30340;52.004;5.908;2022-08-01T11:16:53;22.40;74.60
42037;DHT22;30340;52.004;5.908;2022-08-01T11:19:18;22.30;74.90
42037;DHT22;30340;52.004;5.908;2022-08-01T11:29:42;22.80;74.10
42037;DHT22;30340;52.004;5.908;2022-08-01T11:32:27;22.70;73.20
42037;DHT22;30340;52.004;5.908;2022-08-01T11:34:54;22.40;72.20
42037;DHT22;30340;52.004;5.908;2022-08-01T11:37:25;22.50;72.60
42037;DHT22;30340;52.004;5.908;2022-08-01T11:42:41;22.80;72.30
42037;DHT22;30340;52.004;5.908;2022-08-01T11:45:07;22.90;71.90
42037;DHT22;30340;52.004;5.908;2022-08-01T11:47:50;23.00;71.60
42037;DHT22;30340;52.004;5.908;2022-08-01T11:50:29;23.20;71.30
42037;DHT22;30340;52.004;5.908;2022-08-01T11:53:06;23.30;71.20
42037;DHT22;30340;52.004;5.908;2022-08-01T11:55:32;23.40;71.10
42037;DHT22;30340;52.004;5.908;2022-08-01T11:58:02;23.50;70.40
42037;DHT22;30340;52.004;5.908;2022-08-01T12:00:28;23.60;70.10
42037;DHT22;30340;52.004;5.908;2022-08-01T12:03:04;23.70;69.80
42037;DHT22;30340;52.004;5.908;2022-08-01T12:05:31;23.70;69.60
42037;DHT22;30340;52.004;5.908;2022-08-01T12:07:59;23.70;69.50
42037;DHT22;30340;52.004;5.908;2022-08-01T12:10:28;23.70;68.20
42037;DHT22;30340;52.004;5.908;2022-08-01T12:12:58;23.60;68.90
42037;DHT22;30340;52.004;5.908;2022-08-01T12:15:27;23.70;68.60
42037;DHT22;30340;52.004;5.908;2022-08-01T12:17:59;23.70;68.30
42037;DHT22;30340;52.004;5.908;2022-08-01T12:20:28;23.70;67.90
42037;DHT22;30340;52.004;5.908;2022-08-01T12:22:55;23.70;67.30
42037;DHT22;30340;52.004;5.908;2022-08-01T12:25:21;23.70;67.20
42037;DHT22;30340;52.004;5.908;2022-08-01T12:27:48;23.70;66.90
42037;DHT22;30340;52.004;5.908;2022-08-01T12:30:17;23.70;66.90
42037;DHT22;30340;52.004;5.908;2022-08-01T12:32:45;23.80;66.50
42037;DHT22;30340;52.004;5.908;2022-08-01T12:35:13;23.80;65.90
42037;DHT22;30340;52.004;5.908;2022-08-01T12:37:42;23.90;65.60
42037;DHT22;30340;52.004;5.908;2022-08-01T12:40:33;24.00;64.60
42037;DHT22;30340;52.004;5.908;2022-08-01T12:43:02;23.90;62.80
42037;DHT22;30340;52.004;5.908;2022-08-01T12:45:40;23.90;62.80
42037;DHT22;30340;52.004;5.908;2022-08-01T12:48:10;23.80;62.10
42037;DHT22;30340;52.004;5.908;2022-08-01T12:50:38;23.70;62.40
42037;DHT22;30340;52.004;5.908;2022-08-01T12:53:04;23.70;62.80
42037;DHT22;30340;52.004;5.908;2022-08-01T12:55:30;23.80;63.00
42037;DHT22;30340;52.004;5.908;2022-08-01T12:58:09;23.70;62.70
42037;DHT22;30340;52.004;5.908;2022-08-01T13:00:36;23.70;62.70
42037;DHT22;30340;52.004;5.908;2022-08-01T13:10:43;24.00;62.20
42037;DHT22;30340;52.004;5.908;2022-08-01T13:13:09;24.10;61.80
42037;DHT22;30340;52.004;5.908;2022-08-01T13:15:37;24.10;61.40
42037;DHT22;30340;52.004;5.908;2022-08-01T13:18:30;24.10;61.60
42037;DHT22;30340;52.004;5.908;2022-08-01T13:21:14;24.10;60.70
42037;DHT22;30340;52.004;5.908;2022-08-01T13:23:42;24.20;60.60
42037;DHT22;30340;52.004;5.908;2022-08-01T13:26:08;24.10;60.00
42037;DHT22;30340;52.004;5.908;2022-08-01T13:28:34;24.10;60.00
42037;DHT22;30340;52.004;5.908;2022-08-01T13:31:06;24.20;59.90
42037;DHT22;30340;52.004;5.908;2022-08-01T13:33:44;24.30;59.80
42037;DHT22;30340;52.004;5.908;2022-08-01T13:36:10;24.50;59.50
42037;DHT22;30340;52.004;5.908;2022-08-01T13:38:36;24.60;57.90
42037;DHT22;30340;52.004;5.908;2022-08-01T13:41:20;24.80;58.10
42037;DHT22;30340;52.004;5.908;2022-08-01T13:43:46;24.90;57.20
42037;DHT22;30340;52.004;5.908;2022-08-01T13:46:11;25.10;57.10
42037;DHT22;30340;52.004;5.908;2022-08-01T13:48:37;25.30;57.00
42037;DHT22;30340;52.004;5.908;2022-08-01T13:51:02;25.50;56.60
42037;DHT22;30340;52.004;5.908;2022-08-01T13:53:28;25.60;56.30
42037;DHT22;30340;52.004;5.908;2022-08-01T13:55:54;25.70;56.00
42037;DHT22;30340;52.004;5.908;2022-08-01T13:58:20;25.60;54.70
42037;DHT22;30340;52.004;5.908;2022-08-01T14:00:45;25.70;54.40
42037;DHT22;30340;52.004;5.908;2022-08-01T14:03:11;25.70;54.30
42037;DHT22;30340;52.004;5.908;2022-08-01T14:05:37;25.70;54.10
42037;DHT22;30340;52.004;5.908;2022-08-01T14:08:03;25.80;54.00
42037;DHT22;30340;52.004;5.908;2022-08-01T14:10:29;25.90;53.30
42037;DHT22;30340;52.004;5.908;2022-08-01T14:12:57;26.10;53.20
42037;DHT22;30340;52.004;5.908;2022-08-01T14:15:24;26.30;52.80
42037;DHT22;30340;52.004;5.908;2022-08-01T14:17:49;26.30;52.40
42037;DHT22;30340;52.004;5.908;2022-08-01T14:20:15;26.30;52.20
42037;DHT22;30340;52.004;5.908;2022-08-01T14:22:47;26.30;52.20
42037;DHT22;30340;52.004;5.908;2022-08-01T14:25:13;26.20;52.00
42037;DHT22;30340;52.004;5.908;2022-08-01T14:27:38;26.20;51.90
42037;DHT22;30340;52.004;5.908;2022-08-01T14:30:07;26.20;52.40
42037;DHT22;30340;52.004;5.908;2022-08-01T14:32:33;26.20;52.30
42037;DHT22;30340;52.004;5.908;2022-08-01T14:35:02;26.20;52.00
42037;DHT22;30340;52.004;5.908;2022-08-01T14:37:28;26.40;51.90
42037;DHT22;30340;52.004;5.908;2022-08-01T14:39:55;26.50;51.30
42037;DHT22;30340;52.004;5.908;2022-08-01T14:42:20;26.70;50.80
42037;DHT22;30340;52.004;5.908;2022-08-01T14:44:46;26.90;50.10
42037;DHT22;30340;52.004;5.908;2022-08-01T14:47:11;27.10;49.80
42037;DHT22;30340;52.004;5.908;2022-08-01T14:49:37;27.30;49.30
42037;DHT22;30340;52.004;5.908;2022-08-01T14:52:02;27.50;48.30
42037;DHT22;30340;52.004;5.908;2022-08-01T14:54:31;27.60;47.80
42037;DHT22;30340;52.004;5.908;2022-08-01T14:57:00;27.70;47.30
42037;DHT22;30340;52.004;5.908;2022-08-01T14:59:25;27.80;47.10
42037;DHT22;30340;52.004;5.908;2022-08-01T15:01:51;27.90;46.60
42037;DHT22;30340;52.004;5.908;2022-08-01T15:04:16;27.80;46.10
42037;DHT22;30340;52.004;5.908;2022-08-01T15:06:44;27.70;45.20
42037;DHT22;30340;52.004;5.908;2022-08-01T15:09:09;27.70;45.30
42037;DHT22;30340;52.004;5.908;2022-08-01T15:11:35;27.60;45.10
42037;DHT22;30340;52.004;5.908;2022-08-01T15:14:01;27.60;45.20
42037;DHT22;30340;52.004;5.908;2022-08-01T15:16:45;27.70;45.40
42037;DHT22;30340;52.004;5.908;2022-08-01T15:19:10;27.80;45.70
42037;DHT22;30340;52.004;5.908;2022-08-01T15:21:36;27.80;45.50
42037;DHT22;30340;52.004;5.908;2022-08-01T15:24:02;27.60;44.90
42037;DHT22;30340;52.004;5.908;2022-08-01T15:26:27;27.60;45.40
42037;DHT22;30340;52.004;5.908;2022-08-01T15:28:55;27.50;45.10
42037;DHT22;30340;52.004;5.908;2022-08-01T15:31:20;27.40;44.50
42037;DHT22;30340;52.004;5.908;2022-08-01T15:33:46;27.40;44.60
42037;DHT22;30340;52.004;5.908;2022-08-01T15:36:11;27.30;44.30
42037;DHT22;30340;52.004;5.908;2022-08-01T15:38:37;27.20;43.10
42037;DHT22;30340;52.004;5.908;2022-08-01T15:41:02;27.10;43.50
42037;DHT22;30340;52.004;5.908;2022-08-01T15:43:28;27.10;43.40
42037;DHT22;30340;52.004;5.908;2022-08-01T15:45:53;27.10;43.40
42037;DHT22;30340;52.004;5.908;2022-08-01T15:48:19;27.10;43.40
42037;DHT22;30340;52.004;5.908;2022-08-01T15:50:45;27.00;43.30
42037;DHT22;30340;52.004;5.908;2022-08-01T15:53:10;27.00;43.50
42037;DHT22;30340;52.004;5.908;2022-08-01T15:55:37;26.90;43.00
42037;DHT22;30340;52.004;5.908;2022-08-01T15:58:03;26.80;43.00
42037;DHT22;30340;52.004;5.908;2022-08-01T16:00:29;26.70;42.90
42037;DHT22;30340;52.004;5.908;2022-08-01T16:02:55;26.50;42.80
42037;DHT22;30340;52.004;5.908;2022-08-01T16:05:22;26.40;43.00
42037;DHT22;30340;52.004;5.908;2022-08-01T16:07:47;26.30;42.80
42037;DHT22;30340;52.004;5.908;2022-08-01T16:10:13;26.20;43.10
42037;DHT22;30340;52.004;5.908;2022-08-01T16:12:39;26.10;43.10
42037;DHT22;30340;52.004;5.908;2022-08-01T16:15:05;26.10;42.60
42037;DHT22;30340;52.004;5.908;2022-08-01T16:17:30;26.00;42.30